Time;durP1;ratioP1;P1;durP2;ratioP2;P2;SDS_P1;SDS_P2;PMS_P1;PMS_P2;Temp;Humidity;BMP_temperature;BMP_pressure;BME280_temperature;BME280_humidity;BME280_pressure;Samples;Min_cycle;Max_cycle;Signal;HPM_P1;HPM_P2
2024/04/14 00:00:43;;;;;;;14.20;3.40;;;29.90;38.50;;;;;;5481119;26;20407;-65
2024/04/14 00:03:09;;;;;;;16.38;3.50;;;30.00;38.60;;;;;;5450966;26;20066;-66
2024/04/14 00:05:36;;;;;;;16.17;3.47;;;30.10;38.10;;;;;;5480378;26;20157;-63
2024/04/14 00:08:02;;;;;;;18.92;3.90;;;30.00;38.10;;;;;;5481155;26;20088;-64
2024/04/14 00:10:29;;;;;;;17.77;3.75;;;30.10;38.10;;;;;;5478713;26;20110;-64
2024/04/14 00:12:56;;;;;;;17.48;4.15;;;30.20;38.10;;;;;;5449064;26;20111;-68
2024/04/14 00:15:22;;;;;;;16.10;3.85;;;29.90;37.90;;;;;;5448685;26;20586;-64
2024/04/14 00:17:48;;;;;;;15.50;3.75;;;29.80;38.30;;;;;;5448764;26;20498;-62
2024/04/14 00:20:15;;;;;;;26.63;4.22;;;29.70;39.00;;;;;;5481877;26;20175;-62
2024/04/14 00:22:44;;;;;;;16.40;3.63;;;29.50;38.60;;;;;;5479957;26;20110;-63
2024/04/14 00:25:12;;;;;;;20.33;4.28;;;29.50;38.70;;;;;;5480511;26;20062;-63
2024/04/14 00:27:38;;;;;;;13.93;3.47;;;29.60;38.50;;;;;;5443010;26;20368;-63
2024/04/14 00:30:07;;;;;;;17.90;4.10;;;29.80;38.70;;;;;;5480256;26;20063;-67
2024/04/14 00:32:33;;;;;;;18.20;3.88;;;29.70;38.70;;;;;;5483090;26;20082;-62
2024/04/14 00:35:01;;;;;;;11.40;3.72;;;29.70;38.80;;;;;;5483244;26;20107;-63
2024/04/14 00:37:28;;;;;;;17.38;5.35;;;29.50;38.60;;;;;;5479688;26;20063;-64
2024/04/14 00:39:55;;;;;;;16.77;3.85;;;29.50;38.70;;;;;;5479422;26;20063;-63
2024/04/14 00:42:21;;;;;;;14.63;4.00;;;29.20;38.80;;;;;;5476779;26;20071;-62
2024/04/14 00:44:48;;;;;;;25.58;4.05;;;29.40;39.30;;;;;;5481707;26;20074;-62
2024/04/14 00:47:15;;;;;;;19.92;4.63;;;29.50;39.40;;;;;;5480668;26;20063;-64
2024/04/14 00:49:42;;;;;;;28.48;4.35;;;29.40;39.60;;;;;;5480925;26;20065;-62
2024/04/14 00:52:10;;;;;;;22.05;3.70;;;29.40;39.70;;;;;;5480028;26;20098;-62
2024/04/14 00:54:37;;;;;;;25.08;3.92;;;29.40;39.70;;;;;;5482520;26;20079;-64
2024/04/14 00:57:04;;;;;;;13.23;3.45;;;29.50;39.30;;;;;;5481094;26;20175;-63
2024/04/14 00:59:32;;;;;;;14.20;3.85;;;29.50;39.30;;;;;;5479761;26;20551;-61
2024/04/14 01:01:58;;;;;;;18.73;4.28;;;29.60;39.10;;;;;;5439878;26;20068;-62
2024/04/14 01:04:25;;;;;;;13.32;3.90;;;29.40;39.10;;;;;;5477985;26;20103;-61
2024/04/14 01:06:51;;;;;;;13.63;3.50;;;29.40;39.20;;;;;;5482184;26;20063;-61
2024/04/14 01:09:18;;;;;;;13.02;4.03;;;29.20;39.60;;;;;;5480520;26;20067;-60
2024/04/14 01:11:44;;;;;;;23.45;3.40;;;29.00;39.80;;;;;;5500973;26;20444;-62
2024/04/14 01:14:11;;;;;;;16.17;2.85;;;28.90;41.20;;;;;;5481606;26;20446;-61
2024/04/14 01:16:37;;;;;;;23.90;3.78;;;28.70;41.80;;;;;;5477085;26;20405;-64
2024/04/14 01:19:04;;;;;;;24.95;4.15;;;28.40;42.20;;;;;;5481584;26;20067;-62
2024/04/14 01:21:30;;;;;;;24.45;4.57;;;27.90;43.30;;;;;;5478737;26;20090;-61
2024/04/14 01:23:57;;;;;;;17.33;3.22;;;27.70;44.00;;;;;;5479777;26;20560;-61
2024/04/14 01:26:24;;;;;;;19.63;3.17;;;27.60;44.00;;;;;;5490983;26;20449;-63
2024/04/14 01:28:51;;;;;;;21.75;3.08;;;27.10;45.00;;;;;;5481879;26;20063;-62
2024/04/14 01:31:17;;;;;;;20.67;4.10;;;26.90;45.90;;;;;;5451774;26;20085;-61
2024/04/14 01:33:45;;;;;;;16.42;3.22;;;26.80;46.30;;;;;;5486090;26;20517;-62
2024/04/14 01:36:11;;;;;;;47.95;23.83;;;26.60;46.60;;;;;;5485661;26;20396;-66
2024/04/14 01:38:38;;;;;;;26.15;12.38;;;26.20;47.20;;;;;;5482697;26;20142;-62
2024/04/14 01:41:04;;;;;;;25.25;7.63;;;25.90;47.50;;;;;;5481480;26;20542;-61
2024/04/14 01:43:31;;;;;;;19.80;5.78;;;25.80;47.80;;;;;;5478588;26;20067;-62
2024/04/14 01:45:57;;;;;;;20.90;3.08;;;25.80;47.80;;;;;;5480312;26;20473;-62
2024/04/14 01:48:24;;;;;;;19.30;11.75;;;25.50;47.90;;;;;;5479955;26;20067;-62
2024/04/14 01:50:50;;;;;;;19.27;3.60;;;25.40;48.50;;;;;;5479531;26;20093;-65
2024/04/14 01:53:17;;;;;;;25.25;6.20;;;25.20;48.40;;;;;;5484859;26;20075;-65
2024/04/14 01:55:45;;;;;;;24.73;10.07;;;25.10;48.90;;;;;;5478271;26;20093;-66
2024/04/14 01:58:11;;;;;;;24.65;5.95;;;25.00;48.90;;;;;;5462532;26;21237;-66
2024/04/14 02:00:38;;;;;;;21.02;6.00;;;24.90;49.20;;;;;;5452044;26;20063;-66
2024/04/14 02:03:04;;;;;;;19.23;4.70;;;24.90;49.50;;;;;;5482209;26;20058;-67
2024/04/14 02:05:31;;;;;;;16.35;4.80;;;24.80;49.20;;;;;;5483583;26;20097;-67
2024/04/14 02:07:57;;;;;;;24.20;4.93;;;24.60;49.50;;;;;;5497921;26;20151;-67
2024/04/14 02:10:24;;;;;;;18.77;4.57;;;24.40;50.00;;;;;;5449382;26;20430;-65
2024/04/14 02:12:51;;;;;;;31.05;16.98;;;24.30;50.90;;;;;;5483707;26;20075;-69
2024/04/14 02:15:17;;;;;;;58.55;35.05;;;24.20;50.80;;;;;;5483414;26;20413;-65
2024/04/14 02:17:44;;;;;;;70.05;41.25;;;24.10;50.80;;;;;;5488069;26;20076;-67
2024/04/14 02:20:10;;;;;;;30.27;13.27;;;24.00;51.00;;;;;;5490327;26;20063;-66
2024/04/14 02:22:37;;;;;;;25.70;7.63;;;23.90;51.30;;;;;;5447285;26;20151;-64
2024/04/14 02:25:03;;;;;;;20.75;10.10;;;23.90;51.80;;;;;;5477413;26;20067;-67
2024/04/14 02:27:30;;;;;;;24.63;14.68;;;23.90;51.40;;;;;;5483902;26;20093;-66
2024/04/14 02:29:56;;;;;;;28.83;18.25;;;23.90;51.70;;;;;;5492713;26;20066;-66
2024/04/14 02:32:23;;;;;;;80.28;53.53;;;23.70;52.10;;;;;;5481128;26;20071;-67
2024/04/14 02:34:49;;;;;;;31.10;15.82;;;23.70;52.10;;;;;;5477939;26;20063;-64
2024/04/14 02:37:16;;;;;;;32.03;7.40;;;23.60;52.20;;;;;;5479802;26;20524;-67
2024/04/14 02:39:42;;;;;;;23.30;6.10;;;23.40;52.40;;;;;;5476048;26;20063;-65
2024/04/14 02:42:09;;;;;;;21.70;4.18;;;23.30;52.80;;;;;;5482024;26;20098;-63
2024/04/14 02:44:35;;;;;;;14.25;2.88;;;23.20;52.90;;;;;;5480938;26;20090;-64
2024/04/14 02:47:02;;;;;;;16.90;3.25;;;23.00;53.20;;;;;;5446698;26;20088;-64
2024/04/14 02:49:28;;;;;;;13.43;3.13;;;22.90;53.50;;;;;;5481003;26;20062;-61
2024/04/14 02:51:55;;;;;;;16.58;3.65;;;22.90;53.90;;;;;;5480162;26;20075;-63
2024/04/14 02:54:22;;;;;;;20.27;3.65;;;23.00;53.80;;;;;;5475630;26;20497;-64
2024/04/14 02:56:48;;;;;;;16.92;3.38;;;22.80;53.60;;;;;;5483825;26;20140;-65
2024/04/14 02:59:15;;;;;;;19.25;3.63;;;22.70;54.10;;;;;;5481871;26;20416;-65
2024/04/14 03:01:44;;;;;;;14.45;3.10;;;22.70;53.90;;;;;;5476297;26;20115;-64
2024/04/14 03:04:11;;;;;;;17.77;3.28;;;22.70;53.70;;;;;;5445943;26;20124;-62
2024/04/14 03:06:37;;;;;;;25.55;3.22;;;22.60;53.90;;;;;;5479835;26;20116;-62
2024/04/14 03:09:04;;;;;;;18.67;3.80;;;22.40;54.20;;;;;;5446566;26;20071;-62
2024/04/14 03:11:31;;;;;;;19.02;3.50;;;22.40;54.40;;;;;;5480041;26;20159;-62
2024/04/14 03:13:57;;;;;;;32.55;3.63;;;22.40;54.40;;;;;;5480356;26;20093;-61
2024/04/14 03:16:24;;;;;;;20.13;3.20;;;22.50;54.20;;;;;;5449130;26;20079;-62
2024/04/14 03:18:50;;;;;;;29.00;4.40;;;22.40;54.40;;;;;;5479339;26;20150;-63
2024/04/14 03:21:16;;;;;;;24.20;3.30;;;22.40;54.50;;;;;;5445725;26;20089;-61
2024/04/14 03:23:43;;;;;;;27.08;3.72;;;22.30;54.60;;;;;;5472540;26;20082;-61
2024/04/14 03:26:10;;;;;;;24.17;3.58;;;22.20;54.80;;;;;;5478845;26;20099;-63
2024/04/14 03:28:36;;;;;;;20.83;3.83;;;22.10;55.20;;;;;;5479808;26;20098;-62
2024/04/14 03:31:03;;;;;;;22.27;2.95;;;22.10;55.00;;;;;;5481828;26;20598;-64
2024/04/14 03:33:31;;;;;;;16.45;3.03;;;22.00;55.40;;;;;;5480131;26;20066;-62
2024/04/14 03:36:02;;;;;;;31.38;3.90;;;22.00;54.80;;;;;;5480895;26;20071;-62
2024/04/14 03:38:29;;;;;;;28.80;3.10;;;22.00;55.20;;;;;;5476680;26;20072;-61
2024/04/14 03:40:55;;;;;;;27.77;3.40;;;21.90;55.10;;;;;;5478415;26;20067;-63
2024/04/14 03:43:22;;;;;;;37.50;3.83;;;21.80;55.50;;;;;;5480129;26;20062;-62
2024/04/14 03:45:48;;;;;;;26.90;2.97;;;21.80;55.30;;;;;;5479759;26;20463;-62
2024/04/14 03:48:15;;;;;;;24.88;3.30;;;21.70;55.40;;;;;;5479370;26;20063;-63
2024/04/14 03:50:43;;;;;;;23.15;3.00;;;21.60;55.90;;;;;;5480671;26;20127;-63
2024/04/14 03:53:10;;;;;;;26.70;3.10;;;21.50;56.30;;;;;;5446182;26;20066;-62
2024/04/14 03:55:36;;;;;;;21.52;3.33;;;21.40;56.70;;;;;;5478686;26;20098;-62
2024/04/14 03:58:03;;;;;;;21.67;3.20;;;21.40;56.90;;;;;;5480451;26;20871;-63
2024/04/14 04:00:29;;;;;;;19.75;3.72;;;21.40;56.80;;;;;;5444434;26;20063;-61
2024/04/14 04:02:56;;;;;;;24.23;3.45;;;21.40;57.10;;;;;;5478831;26;20082;-61
2024/04/14 04:05:22;;;;;;;28.60;3.33;;;21.40;57.20;;;;;;5479304;26;20524;-62
2024/04/14 04:07:49;;;;;;;22.23;3.10;;;21.30;57.00;;;;;;5479954;26;20063;-63
2024/04/14 04:10:15;;;;;;;29.75;2.95;;;21.30;57.30;;;;;;5477122;26;20063;-63
2024/04/14 04:12:45;;;;;;;26.45;3.55;;;21.30;57.60;;;;;;5480915;26;20106;-62
2024/04/14 04:15:11;;;;;;;23.50;3.20;;;21.20;57.60;;;;;;5479258;26;20074;-61
2024/04/14 04:17:37;;;;;;;28.40;3.50;;;21.20;57.60;;;;;;5478940;26;20071;-62
2024/04/14 04:20:04;;;;;;;26.02;3.47;;;21.20;57.60;;;;;;5444916;26;20070;-62
2024/04/14 04:22:31;;;;;;;13.68;3.33;;;21.20;57.50;;;;;;5473796;26;20625;-61
2024/04/14 04:24:57;;;;;;;21.88;2.97;;;21.20;57.20;;;;;;5478034;26;20094;-62
2024/04/14 04:27:24;;;;;;;34.70;3.78;;;21.20;56.80;;;;;;5479633;26;20150;-62
2024/04/14 04:29:50;;;;;;;20.33;4.03;;;21.10;56.80;;;;;;5482445;26;20070;-63
2024/04/14 04:32:17;;;;;;;28.73;3.65;;;21.10;56.60;;;;;;5474962;26;20097;-63
2024/04/14 04:34:45;;;;;;;22.98;2.80;;;21.10;56.70;;;;;;5479946;26;20219;-64
2024/04/14 04:37:14;;;;;;;25.65;3.22;;;21.10;56.60;;;;;;5480235;26;20092;-61
2024/04/14 04:39:40;;;;;;;35.75;3.53;;;21.00;56.50;;;;;;5476590;26;20075;-62
2024/04/14 04:42:07;;;;;;;30.05;3.50;;;20.90;56.20;;;;;;5447084;26;20067;-63
2024/04/14 04:44:33;;;;;;;20.67;3.20;;;20.80;56.50;;;;;;5478780;26;20067;-63
2024/04/14 04:47:00;;;;;;;20.80;2.58;;;20.80;56.70;;;;;;5447834;26;20079;-61
2024/04/14 04:49:26;;;;;;;29.23;3.05;;;20.70;56.60;;;;;;5479458;26;20067;-60
2024/04/14 04:51:53;;;;;;;21.88;2.83;;;20.70;56.80;;;;;;5476803;26;20157;-61
2024/04/14 04:54:19;;;;;;;17.08;3.22;;;20.70;57.00;;;;;;5477265;26;20063;-61
2024/04/14 04:56:46;;;;;;;25.73;2.95;;;20.70;57.10;;;;;;5478078;26;20688;-62
2024/04/14 04:59:13;;;;;;;26.75;2.75;;;20.70;56.90;;;;;;5448079;26;20063;-62
2024/04/14 05:01:39;;;;;;;23.23;2.17;;;20.70;57.10;;;;;;5481343;26;20071;-62
2024/04/14 05:04:06;;;;;;;27.67;2.90;;;20.60;57.10;;;;;;5480095;26;20067;-61
2024/04/14 05:06:32;;;;;;;24.80;2.72;;;20.50;57.20;;;;;;5450760;26;20522;-61
2024/04/14 05:08:59;;;;;;;22.65;2.50;;;20.50;57.30;;;;;;5484370;26;20093;-62
2024/04/14 05:11:25;;;;;;;27.33;3.17;;;20.50;57.40;;;;;;5480340;26;20066;-62
2024/04/14 05:13:52;;;;;;;22.63;3.10;;;20.50;57.60;;;;;;5481302;26;21169;-62
2024/04/14 05:16:19;;;;;;;27.42;2.70;;;20.50;57.20;;;;;;5480942;26;20068;-60
2024/04/14 05:18:46;;;;;;;24.55;2.83;;;20.50;57.20;;;;;;5481743;26;20385;-61
2024/04/14 05:21:12;;;;;;;12.82;2.35;;;20.50;57.10;;;;;;5446256;26;20078;-60
2024/04/14 05:23:39;;;;;;;12.05;2.60;;;20.60;57.00;;;;;;5481767;26;20094;-62
2024/04/14 05:26:05;;;;;;;18.02;2.75;;;20.60;56.70;;;;;;5482789;26;20098;-62
2024/04/14 05:28:32;;;;;;;13.30;2.28;;;20.60;56.80;;;;;;5481819;26;20082;-62
2024/04/14 05:30:58;;;;;;;12.35;2.38;;;20.60;56.90;;;;;;5480393;26;20086;-62
2024/04/14 05:33:24;;;;;;;14.82;2.25;;;20.60;56.90;;;;;;5476466;26;20094;-62
2024/04/14 05:35:55;;;;;;;19.67;2.55;;;20.50;57.00;;;;;;5449767;26;20446;-62
2024/04/14 05:38:22;;;;;;;18.70;2.45;;;20.50;57.00;;;;;;5477253;26;20071;-61
2024/04/14 05:40:48;;;;;;;16.70;2.85;;;20.60;56.90;;;;;;5450466;26;20067;-61
2024/04/14 05:43:15;;;;;;;15.02;2.33;;;20.60;56.80;;;;;;5448021;26;20063;-62
2024/04/14 05:45:41;;;;;;;16.25;2.60;;;20.60;56.90;;;;;;5481136;26;20079;-60
2024/04/14 05:48:08;;;;;;;14.18;2.95;;;20.60;57.00;;;;;;5484654;26;20093;-62
2024/04/14 05:50:34;;;;;;;10.55;2.50;;;20.50;56.90;;;;;;5475391;26;20093;-61
2024/04/14 05:53:01;;;;;;;16.40;2.97;;;20.50;57.20;;;;;;5474047;26;20132;-61
2024/04/14 05:55:27;;;;;;;16.58;3.55;;;20.50;57.20;;;;;;5485377;26;20106;-61
2024/04/14 05:57:54;;;;;;;20.98;5.35;;;20.40;57.40;;;;;;5477869;26;20067;-62
2024/04/14 06:00:20;;;;;;;15.57;4.80;;;20.40;57.40;;;;;;5480252;26;20544;-62
2024/04/14 06:02:47;;;;;;;17.98;4.90;;;20.30;57.40;;;;;;5480551;26;20096;-62
2024/04/14 06:05:13;;;;;;;18.17;4.07;;;20.40;57.80;;;;;;5480778;26;20067;-62
2024/04/14 06:07:40;;;;;;;20.77;4.00;;;20.30;57.80;;;;;;5478992;26;20093;-61
2024/04/14 06:10:07;;;;;;;26.05;4.88;;;20.30;57.70;;;;;;5447508;26;20075;-62
2024/04/14 06:12:33;;;;;;;27.85;4.88;;;20.30;57.60;;;;;;5481224;26;20074;-61
2024/04/14 06:15:00;;;;;;;24.50;4.97;;;20.20;57.60;;;;;;5479924;26;20062;-61
2024/04/14 06:17:28;;;;;;;34.65;5.60;;;20.20;58.10;;;;;;5479226;26;20063;-61
2024/04/14 06:19:55;;;;;;;21.63;5.25;;;20.20;58.00;;;;;;5481070;26;20071;-61
2024/04/14 06:22:22;;;;;;;31.35;5.47;;;20.30;58.00;;;;;;5478855;26;20067;-62
2024/04/14 06:24:48;;;;;;;32.28;5.25;;;20.20;57.90;;;;;;5479323;26;20067;-62
2024/04/14 06:27:15;;;;;;;46.03;6.78;;;20.20;58.20;;;;;;5474139;26;20115;-62
2024/04/14 06:29:41;;;;;;;56.78;20.60;;;20.30;58.40;;;;;;5477350;26;20116;-62
2024/04/14 06:32:07;;;;;;;39.55;6.47;;;20.30;58.60;;;;;;5480742;26;20377;-62
2024/04/14 06:34:34;;;;;;;34.15;6.72;;;20.30;58.80;;;;;;5474069;26;20074;-62
2024/04/14 06:37:00;;;;;;;57.72;7.28;;;20.20;59.20;;;;;;5479499;26;20070;-62
2024/04/14 06:39:27;;;;;;;54.33;8.63;;;20.10;59.40;;;;;;5482238;26;20066;-62
2024/04/14 06:41:53;;;;;;;57.97;9.60;;;20.10;59.60;;;;;;5479657;26;20443;-62
2024/04/14 06:44:20;;;;;;;53.00;9.23;;;20.00;59.60;;;;;;5481869;26;20544;-63
2024/04/14 06:46:46;;;;;;;42.53;8.30;;;20.00;59.60;;;;;;5478137;26;20114;-62
2024/04/14 06:49:13;;;;;;;55.85;7.60;;;20.00;59.40;;;;;;5480093;26;20110;-61
2024/04/14 06:51:39;;;;;;;47.40;7.60;;;19.90;59.40;;;;;;5446209;26;20101;-62
2024/04/14 06:54:05;;;;;;;47.20;7.97;;;19.80;59.50;;;;;;5477923;26;20140;-62
2024/04/14 06:56:35;;;;;;;52.22;7.72;;;19.80;59.70;;;;;;5478900;26;20110;-62
2024/04/14 06:59:01;;;;;;;43.42;8.40;;;19.80;59.90;;;;;;5479043;26;20171;-62
2024/04/14 07:01:28;;;;;;;50.22;8.60;;;19.90;60.30;;;;;;5479297;26;20400;-62
2024/04/14 07:03:54;;;;;;;49.80;8.55;;;19.90;60.10;;;;;;5478575;26;20163;-62
2024/04/14 07:06:21;;;;;;;48.97;8.65;;;19.80;60.40;;;;;;5446218;26;20067;-62
2024/04/14 07:08:47;;;;;;;53.67;9.75;;;19.70;60.70;;;;;;5482679;26;20551;-62
2024/04/14 07:11:14;;;;;;;54.75;9.75;;;19.70;60.80;;;;;;5481048;26;20122;-62
2024/04/14 07:13:40;;;;;;;56.80;10.13;;;19.70;60.70;;;;;;5477876;26;20130;-60
2024/04/14 07:16:07;;;;;;;59.72;9.63;;;19.70;60.90;;;;;;5477704;26;20075;-62
2024/04/14 07:18:33;;;;;;;56.22;8.93;;;19.70;61.10;;;;;;5481995;26;20102;-62
2024/04/14 07:21:04;;;;;;;58.40;9.80;;;19.80;61.30;;;;;;5445069;26;20067;-62
2024/04/14 07:23:31;;;;;;;47.03;8.60;;;19.70;61.50;;;;;;5480167;26;20162;-61
2024/04/14 07:25:58;;;;;;;42.95;9.15;;;19.70;61.80;;;;;;5477794;26;20082;-61
2024/04/14 07:28:24;;;;;;;44.03;9.27;;;19.60;62.10;;;;;;5482496;26;20063;-61
2024/04/14 07:30:51;;;;;;;56.83;10.63;;;19.60;62.60;;;;;;5478961;26;20066;-63
2024/04/14 07:33:18;;;;;;;49.10;9.32;;;19.50;62.40;;;;;;5447088;26;20089;-63
2024/04/14 07:35:45;;;;;;;42.00;7.38;;;20.30;61.20;;;;;;5479152;26;20150;-55
2024/04/14 07:38:11;;;;;;;22.75;4.18;;;21.20;58.70;;;;;;5475120;26;20059;-56
2024/04/14 07:40:38;;;;;;;22.23;2.65;;;21.50;56.00;;;;;;5447549;26;20158;-58
2024/04/14 07:43:07;;;;;;;11.32;2.75;;;21.70;55.30;;;;;;5476215;26;20122;-58
2024/04/14 07:45:34;;;;;;;15.55;2.63;;;21.70;54.60;;;;;;5476247;26;20063;-56
2024/04/14 07:48:01;;;;;;;12.38;2.10;;;21.60;54.70;;;;;;5477147;26;20086;-64
2024/04/14 07:50:27;;;;;;;14.27;2.60;;;21.90;55.00;;;;;;5480831;26;20063;-56
2024/04/14 07:52:53;;;;;;;8.55;1.88;;;21.70;54.70;;;;;;5443768;26;20070;-54
2024/04/14 07:55:20;;;;;;;7.22;1.38;;;21.20;54.60;;;;;;5474751;26;20474;-60
2024/04/14 07:57:46;;;;;;;7.50;1.35;;;21.10;55.10;;;;;;5476591;26;20154;-58
2024/04/14 08:00:13;;;;;;;7.03;1.60;;;21.30;55.20;;;;;;5480045;26;20075;-59
2024/04/14 08:02:41;;;;;;;5.70;1.42;;;21.00;55.60;;;;;;5481027;26;20062;-57
2024/04/14 08:05:08;;;;;;;10.38;1.80;;;20.90;56.30;;;;;;5478386;26;20075;-60
2024/04/14 08:07:35;;;;;;;3.13;1.30;;;20.90;56.70;;;;;;5476988;26;20107;-59
2024/04/14 08:10:01;;;;;;;3.67;1.20;;;20.80;57.00;;;;;;5478047;26;20205;-57
2024/04/14 08:12:28;;;;;;;5.03;1.65;;;20.60;57.40;;;;;;5476586;26;20062;-57
2024/04/14 08:14:54;;;;;;;12.80;1.95;;;20.80;57.40;;;;;;5478845;26;20448;-59
2024/04/14 08:17:21;;;;;;;5.35;1.42;;;20.70;57.40;;;;;;5445658;26;20085;-60
2024/04/14 08:19:49;;;;;;;5.57;1.60;;;20.50;57.90;;;;;;5450651;26;20071;-61
2024/04/14 08:22:16;;;;;;;5.93;1.40;;;20.50;58.50;;;;;;5443736;26;20083;-60
2024/04/14 08:24:42;;;;;;;3.60;1.00;;;20.40;58.30;;;;;;5479354;26;20063;-59
2024/04/14 08:27:09;;;;;;;8.35;1.30;;;20.20;58.50;;;;;;5477955;26;20234;-60
2024/04/14 08:29:36;;;;;;;2.92;0.95;;;20.20;58.80;;;;;;5480634;26;20074;-60
2024/04/14 08:32:02;;;;;;;2.50;0.75;;;20.20;58.80;;;;;;5476216;26;20093;-59
2024/04/14 08:34:29;;;;;;;2.35;1.15;;;20.20;58.70;;;;;;5482188;26;20096;-59
2024/04/14 08:36:55;;;;;;;5.82;1.20;;;20.10;59.00;;;;;;5445754;26;20154;-61
2024/04/14 08:39:22;;;;;;;2.67;1.00;;;20.00;59.40;;;;;;5480306;26;20130;-60
2024/04/14 08:41:49;;;;;;;3.33;0.98;;;20.10;59.50;;;;;;5477779;26;20063;-59
2024/04/14 08:44:15;;;;;;;5.03;0.80;;;19.90;60.10;;;;;;5478110;26;20074;-61
2024/04/14 08:46:46;;;;;;;5.18;1.00;;;19.90;60.60;;;;;;5477676;26;20098;-62
2024/04/14 08:49:15;;;;;;;1.35;0.82;;;19.70;60.70;;;;;;5482168;26;20150;-60
2024/04/14 08:51:41;;;;;;;4.75;0.98;;;19.70;61.40;;;;;;5449709;26;20093;-63
2024/04/14 08:54:08;;;;;;;23.15;16.98;;;19.70;61.50;;;;;;5481949;26;20063;-61
2024/04/14 08:56:35;;;;;;;4.32;0.85;;;19.70;61.80;;;;;;5446001;26;20572;-59
2024/04/14 08:59:05;;;;;;;4.20;1.00;;;19.80;61.60;;;;;;5478923;26;20151;-62
2024/04/14 09:01:34;;;;;;;1.50;0.70;;;19.70;62.20;;;;;;5441489;26;20635;-60
2024/04/14 09:04:05;;;;;;;2.30;0.88;;;19.70;62.90;;;;;;5449100;26;20072;-61
2024/04/14 09:06:35;;;;;;;2.25;0.77;;;19.70;63.00;;;;;;5475975;26;20074;-61
2024/04/14 09:09:02;;;;;;;4.57;0.70;;;19.60;63.60;;;;;;5474383;26;20083;-60
2024/04/14 09:11:29;;;;;;;3.00;0.70;;;19.70;63.70;;;;;;5477634;26;21076;-60
2024/04/14 09:13:56;;;;;;;2.58;1.00;;;19.40;63.20;;;;;;5480015;26;20094;-60
2024/04/14 09:16:22;;;;;;;3.13;0.70;;;19.50;63.90;;;;;;5477317;26;20095;-62
2024/04/14 09:18:49;;;;;;;2.85;0.82;;;19.30;64.10;;;;;;5479692;26;20083;-60
2024/04/14 09:21:15;;;;;;;2.65;0.90;;;19.60;64.60;;;;;;5472816;26;20120;-59
2024/04/14 09:23:42;;;;;;;2.15;0.65;;;19.30;63.70;;;;;;5478232;26;20089;-59
2024/04/14 09:26:08;;;;;;;2.42;0.82;;;19.30;64.30;;;;;;5477174;26;20070;-61
2024/04/14 09:28:35;;;;;;;2.50;0.80;;;19.20;65.10;;;;;;5477446;26;20441;-59
2024/04/14 09:31:01;;;;;;;1.63;0.60;;;19.10;65.70;;;;;;5476784;26;20067;-60
2024/04/14 09:33:28;;;;;;;1.80;0.80;;;19.10;65.50;;;;;;5480261;26;20167;-56
2024/04/14 09:35:54;;;;;;;1.50;0.70;;;18.90;66.20;;;;;;5478665;26;20067;-57
2024/04/14 09:38:23;;;;;;;4.25;0.90;;;18.90;66.40;;;;;;5446406;26;20505;-58
2024/04/14 09:40:50;;;;;;;1.58;0.60;;;18.90;66.90;;;;;;5474463;26;20062;-59
2024/04/14 09:43:19;;;;;;;3.30;1.13;;;18.80;66.90;;;;;;5478745;26;20076;-59
2024/04/14 09:45:48;;;;;;;2.15;1.10;;;18.80;67.10;;;;;;5449229;26;20067;-59
2024/04/14 09:48:16;;;;;;;3.30;0.90;;;18.70;67.40;;;;;;5480974;26;20083;-60
2024/04/14 09:50:44;;;;;;;4.72;1.00;;;18.70;67.40;;;;;;5479658;26;20070;-62
2024/04/14 09:53:11;;;;;;;3.35;0.98;;;18.80;67.50;;;;;;5485334;26;20519;-58
2024/04/14 09:55:39;;;;;;;2.95;0.82;;;18.70;67.80;;;;;;5484289;26;20097;-60
2024/04/14 09:58:06;;;;;;;1.45;0.82;;;18.70;68.00;;;;;;5482178;26;20119;-62
2024/04/14 10:00:33;;;;;;;4.55;1.10;;;18.70;68.20;;;;;;5477332;26;20071;-60
2024/04/14 10:03:08;;;;;;;5.57;0.85;;;18.80;67.90;;;;;;5482149;26;20532;-60
2024/04/14 10:05:37;;;;;;;3.17;0.70;;;18.80;69.40;;;;;;5480432;26;20112;-60
2024/04/14 10:08:05;;;;;;;2.92;0.70;;;18.70;69.90;;;;;;5481329;26;20133;-57
2024/04/14 10:10:32;;;;;;;5.15;1.00;;;18.70;70.80;;;;;;5480208;26;20191;-59
2024/04/14 10:12:59;;;;;;;6.95;0.90;;;18.60;72.30;;;;;;5473904;26;20517;-60
2024/04/14 10:15:25;;;;;;;2.17;0.82;;;18.40;73.70;;;;;;5481487;26;20067;-59
2024/04/14 10:18:17;;;;;;;6.38;1.00;;;18.40;74.80;;;;;;5479483;26;20071;-61
2024/04/14 10:20:45;;;;;;;5.15;1.05;;;18.40;75.50;;;;;;5475479;26;20094;-61
2024/04/14 10:23:19;;;;;;;6.28;1.55;;;18.30;75.50;;;;;;5481241;26;20067;-61
2024/04/14 10:25:49;;;;;;;1.92;0.90;;;18.30;76.20;;;;;;5478527;26;20155;-59
2024/04/14 10:28:17;;;;;;;2.42;0.80;;;18.30;76.40;;;;;;5484040;26;20101;-60
2024/04/14 10:30:45;;;;;;;4.70;0.80;;;18.20;76.70;;;;;;5479404;26;20094;-60
2024/04/14 10:33:23;;;;;;;6.00;0.80;;;18.20;77.00;;;;;;5480722;26;20066;-60
2024/04/14 10:36:01;;;;;;;7.55;1.10;;;18.30;77.00;;;;;;5478937;26;20067;-61
2024/04/14 10:38:30;;;;;;;3.25;0.80;;;18.20;76.80;;;;;;5443458;26;20125;-60
2024/04/14 10:40:57;;;;;;;2.05;1.08;;;18.20;77.00;;;;;;5479908;26;20162;-60
2024/04/14 10:43:25;;;;;;;3.25;1.13;;;18.20;77.20;;;;;;5482136;26;20153;-59
2024/04/14 10:45:55;;;;;;;0.90;0.50;;;18.10;77.20;;;;;;5450241;26;20062;-63
2024/04/14 10:48:21;;;;;;;3.30;1.10;;;18.10;77.60;;;;;;5483186;26;20103;-61
2024/04/14 10:50:48;;;;;;;2.47;0.95;;;18.00;78.10;;;;;;5470791;26;20063;-60
2024/04/14 10:53:14;;;;;;;1.60;0.47;;;18.00;78.70;;;;;;5477077;26;20380;-59
2024/04/14 10:55:40;;;;;;;6.80;0.80;;;17.90;79.30;;;;;;5476833;26;21449;-61
2024/04/14 10:58:07;;;;;;;3.28;0.80;;;17.90;79.90;;;;;;5439107;26;20067;-61
2024/04/14 11:00:33;;;;;;;1.88;0.95;;;17.90;80.10;;;;;;5469493;26;20063;-60
2024/04/14 11:03:00;;;;;;;2.00;0.82;;;17.80;80.40;;;;;;5472451;26;20210;-60
2024/04/14 11:05:27;;;;;;;3.33;0.80;;;17.80;81.20;;;;;;5471388;26;20747;-59
2024/04/14 11:07:54;;;;;;;1.15;0.80;;;17.80;80.80;;;;;;5474814;26;20083;-60
2024/04/14 11:10:22;;;;;;;4.45;0.82;;;17.90;81.00;;;;;;5469764;26;20608;-60
2024/04/14 11:12:48;;;;;;;2.42;0.82;;;17.80;80.90;;;;;;5471057;26;20159;-61
2024/04/14 11:15:15;;;;;;;2.78;0.65;;;17.80;80.90;;;;;;5472003;26;20116;-60
2024/04/14 11:17:42;;;;;;;6.00;0.50;;;17.70;81.10;;;;;;5471370;26;20066;-60
2024/04/14 11:20:13;;;;;;;4.10;0.40;;;17.80;81.30;;;;;;5477871;26;20063;-64
2024/04/14 11:22:39;;;;;;;0.90;0.50;;;17.60;81.20;;;;;;5474674;26;20067;-60
2024/04/14 11:25:07;;;;;;;0.60;0.35;;;17.70;81.50;;;;;;5471459;26;20156;-60
2024/04/14 11:27:34;;;;;;;2.42;0.52;;;17.80;81.00;;;;;;5471360;26;20064;-60
2024/04/14 11:30:00;;;;;;;0.45;0.40;;;17.80;81.20;;;;;;5438895;26;20090;-60
2024/04/14 11:32:33;;;;;;;1.90;0.55;;;17.70;80.70;;;;;;5467901;26;20540;-61
2024/04/14 11:35:05;;;;;;;0.52;0.52;;;17.70;80.90;;;;;;5465981;26;20063;-60
2024/04/14 11:37:33;;;;;;;1.65;0.40;;;17.50;81.00;;;;;;5465958;26;20067;-61
2024/04/14 11:40:00;;;;;;;1.10;0.52;;;17.50;81.20;;;;;;5472161;26;20103;-60
2024/04/14 11:42:31;;;;;;;0.50;0.40;;;17.50;81.20;;;;;;5476301;26;20423;-61
2024/04/14 11:44:58;;;;;;;0.80;0.55;;;17.60;80.80;;;;;;5469679;26;20074;-62
2024/04/14 11:47:26;;;;;;;0.57;0.47;;;17.60;80.70;;;;;;5464747;26;20454;-61
2024/04/14 11:49:53;;;;;;;1.17;0.55;;;17.50;80.30;;;;;;5463897;26;20064;-60
2024/04/14 11:52:19;;;;;;;0.70;0.60;;;17.50;80.10;;;;;;5468637;26;20094;-62
2024/04/14 11:54:48;;;;;;;0.40;0.40;;;17.50;80.00;;;;;;5469056;26;20205;-60
2024/04/14 11:57:15;;;;;;;3.85;0.60;;;17.50;79.60;;;;;;5468657;26;20102;-60
2024/04/14 11:59:41;;;;;;;1.38;0.70;;;17.40;80.00;;;;;;5468963;26;20478;-52
2024/04/14 12:02:08;;;;;;;5.13;0.50;;;17.30;80.10;;;;;;5469038;26;20074;-60
2024/04/14 12:04:34;;;;;;;1.02;0.68;;;17.30;79.60;;;;;;5436279;26;20136;-60
2024/04/14 12:07:01;;;;;;;1.98;0.70;;;17.20;79.30;;;;;;5473320;26;20597;-60
2024/04/14 12:09:27;;;;;;;2.85;0.90;;;17.30;78.50;;;;;;5470966;26;20112;-60
2024/04/14 12:11:54;;;;;;;6.13;0.70;;;17.30;78.50;;;;;;5476691;26;20067;-61
2024/04/14 12:14:20;;;;;;;2.13;0.80;;;17.30;78.00;;;;;;5470248;26;20103;-60
2024/04/14 12:16:47;;;;;;;0.77;0.60;;;17.30;77.70;;;;;;5465830;26;20150;-60
2024/04/14 12:19:14;;;;;;;1.00;0.60;;;17.20;77.60;;;;;;5472196;26;20075;-61
2024/04/14 12:21:40;;;;;;;0.90;0.40;;;17.20;77.70;;;;;;5467674;26;20582;-60
2024/04/14 12:24:07;;;;;;;1.67;0.68;;;17.20;77.40;;;;;;5471599;26;20067;-63
2024/04/14 12:26:33;;;;;;;1.73;0.80;;;17.20;77.20;;;;;;5467458;26;20093;-59
2024/04/14 12:29:00;;;;;;;1.95;0.57;;;17.20;77.20;;;;;;5468079;26;20532;-60
2024/04/14 12:31:27;;;;;;;1.70;0.60;;;17.20;77.60;;;;;;5470513;26;20097;-60
2024/04/14 12:33:53;;;;;;;2.75;0.60;;;17.20;77.60;;;;;;5468436;26;20067;-60
2024/04/14 12:36:20;;;;;;;1.38;0.63;;;17.20;77.70;;;;;;5441760;26;20114;-60
2024/04/14 12:38:47;;;;;;;1.75;0.60;;;17.10;77.90;;;;;;5433407;26;20516;-62